createdAt,value
2022-11-19T00:01:11.562Z,4.20
2022-11-19T00:03:26.418Z,6.30
2022-11-19T00:05:44.974Z,3.70
2022-11-19T00:07:58.779Z,5.40
2022-11-19T00:10:13.522Z,2.30
2022-11-19T00:12:43.207Z,3.40
2022-11-19T00:14:56.583Z,2.70
2022-11-19T00:17:09.882Z,3.30
2022-11-19T00:19:23.132Z,3.80
2022-11-19T00:21:36.668Z,3.00
2022-11-19T00:23:50.365Z,6.20
2022-11-19T00:26:09.315Z,3.10
2022-11-19T00:28:22.484Z,3.90
2022-11-19T00:30:47.997Z,4.00
2022-11-19T00:33:02.444Z,3.50
2022-11-19T00:35:16.582Z,4.30
2022-11-19T00:37:30.521Z,3.00
2022-11-19T00:39:44.255Z,2.00
2022-11-19T00:41:57.626Z,2.30
2022-11-19T00:44:11.132Z,2.70
2022-11-19T00:46:26.088Z,3.10
2022-11-19T00:48:40.532Z,2.40
2022-11-19T00:50:53.945Z,2.80
2022-11-19T00:53:07.323Z,4.70
2022-11-19T00:55:20.936Z,7.50
2022-11-19T00:57:34.309Z,2.30
2022-11-19T00:59:47.616Z,2.90
2022-11-19T01:02:01.131Z,4.60
2022-11-19T01:04:14.480Z,2.30
2022-11-19T01:06:29.920Z,4.00
2022-11-19T01:08:43.306Z,2.80
2022-11-19T01:10:56.753Z,2.30
2022-11-19T01:13:26.380Z,2.20
2022-11-19T01:15:39.805Z,2.60
2022-11-19T01:17:53.216Z,3.40
2022-11-19T01:20:06.755Z,2.90
2022-11-19T01:22:20.163Z,3.50
2022-11-19T01:24:33.525Z,2.40
2022-11-19T01:26:47.525Z,3.30
2022-11-19T01:29:01.162Z,4.20
2022-11-19T01:31:16.015Z,2.50
2022-11-19T01:33:29.984Z,3.20
2022-11-19T01:35:43.470Z,3.40
2022-11-19T01:37:57.110Z,5.20
2022-11-19T01:40:12.193Z,4.00
2022-11-19T01:42:42.529Z,4.10
2022-11-19T01:45:08.246Z,3.50
2022-11-19T01:47:21.809Z,3.70
2022-11-19T01:49:35.407Z,4.00
2022-11-19T01:51:52.686Z,4.60
2022-11-19T01:54:12.249Z,4.70
2022-11-19T01:56:27.367Z,3.60
2022-11-19T01:58:43.457Z,4.50
2022-11-19T02:00:56.809Z,3.50
2022-11-19T02:03:10.325Z,2.80
2022-11-19T02:05:24.687Z,2.50
2022-11-19T02:07:39.742Z,2.90
2022-11-19T02:09:53.687Z,3.30
2022-11-19T02:12:29.834Z,5.60
2022-11-19T02:15:00.730Z,3.00
2022-11-19T02:17:25.172Z,3.50
2022-11-19T02:20:07.786Z,3.70
2022-11-19T02:22:37.342Z,3.40
2022-11-19T02:24:57.403Z,3.20
2022-11-19T02:27:47.182Z,3.70
2022-11-19T02:30:17.836Z,4.00
2022-11-19T02:32:38.005Z,4.00
2022-11-19T02:34:56.783Z,2.80
2022-11-19T02:37:17.328Z,5.70
2022-11-19T02:39:37.191Z,3.80
2022-11-19T02:41:57.333Z,3.50
2022-11-19T02:44:45.025Z,2.90
2022-11-19T02:46:59.693Z,4.10
2022-11-19T02:49:15.221Z,3.20
2022-11-19T02:51:29.373Z,4.50
2022-11-19T02:53:45.195Z,4.30
2022-11-19T02:56:19.009Z,3.20
2022-11-19T02:58:51.460Z,3.50
2022-11-19T03:01:23.070Z,3.60
2022-11-19T03:03:54.746Z,2.80
2022-11-19T03:06:13.626Z,2.90
2022-11-19T03:08:27.943Z,4.50
2022-11-19T03:10:50.478Z,2.80
2022-11-19T03:13:26.204Z,3.60
2022-11-19T03:16:04.794Z,3.10
2022-11-19T03:18:23.505Z,3.20
2022-11-19T03:20:42.103Z,3.90
2022-11-19T03:22:58.145Z,3.00
2022-11-19T03:25:16.032Z,4.10
2022-11-19T03:27:34.458Z,2.40
2022-11-19T03:29:51.415Z,3.40
2022-11-19T03:32:09.005Z,3.60
2022-11-19T03:34:25.971Z,5.20
2022-11-19T03:36:42.640Z,3.10
2022-11-19T03:39:01.701Z,2.20
2022-11-19T03:41:19.169Z,3.50
2022-11-19T03:43:35.084Z,2.20
2022-11-19T03:45:52.029Z,3.90
2022-11-19T03:48:08.922Z,3.00
2022-11-19T03:50:27.123Z,2.90
2022-11-19T03:52:40.882Z,4.30
2022-11-19T03:54:54.396Z,3.70
2022-11-19T03:57:09.172Z,4.10
2022-11-19T03:59:28.156Z,3.50
2022-11-19T04:01:43.377Z,4.30
2022-11-19T04:04:13.587Z,2.80
2022-11-19T04:06:29.431Z,2.30
2022-11-19T04:08:42.839Z,3.40
2022-11-19T04:13:12.736Z,2.00
2022-11-19T04:15:26.574Z,2.80
2022-11-19T04:17:40.073Z,3.40
2022-11-19T04:19:53.421Z,2.90
2022-11-19T04:22:07.762Z,3.20
2022-11-19T04:24:21.201Z,2.80
2022-11-19T04:26:34.579Z,2.70
2022-11-19T04:28:47.913Z,3.00
2022-11-19T04:31:01.265Z,4.40
2022-11-19T04:33:14.829Z,2.40
2022-11-19T04:35:28.208Z,3.10
2022-11-19T04:37:41.878Z,2.60
2022-11-19T04:39:55.862Z,5.00
2022-11-19T04:42:09.649Z,2.70
2022-11-19T04:44:23.222Z,3.60
2022-11-19T04:46:37.299Z,3.10
2022-11-19T04:48:50.838Z,1.40
2022-11-19T04:51:04.350Z,4.00
2022-11-19T04:53:17.826Z,1.90
2022-11-19T04:55:31.396Z,2.50
2022-11-19T04:57:44.846Z,2.20
2022-11-19T04:59:58.233Z,2.40
2022-11-19T05:02:11.780Z,2.20
2022-11-19T05:04:25.768Z,3.00
2022-11-19T05:06:39.153Z,2.10
2022-11-19T05:08:52.786Z,3.40
2022-11-19T05:11:06.644Z,2.50
2022-11-19T05:13:20.163Z,2.30
2022-11-19T05:15:33.631Z,3.00
2022-11-19T05:17:47.891Z,4.20
2022-11-19T05:20:01.499Z,2.30
2022-11-19T05:22:14.924Z,3.00
2022-11-19T05:24:28.355Z,2.70
2022-11-19T05:26:42.339Z,2.70
2022-11-19T05:28:55.752Z,2.00
2022-11-19T05:31:09.338Z,2.30
2022-11-19T05:33:22.832Z,3.60
2022-11-19T05:35:36.909Z,3.10
2022-11-19T05:37:51.477Z,3.40
2022-11-19T05:40:04.954Z,2.50
2022-11-19T05:42:18.626Z,2.60
2022-11-19T05:44:32.129Z,2.00
2022-11-19T05:46:45.542Z,3.80
2022-11-19T05:48:58.974Z,2.70
2022-11-19T05:51:16.395Z,2.60
2022-11-19T05:53:29.925Z,1.80
2022-11-19T05:55:43.363Z,2.50
2022-11-19T05:57:57.407Z,4.00
2022-11-19T06:00:11.863Z,2.10
2022-11-19T06:02:28.229Z,1.90
2022-11-19T06:04:41.581Z,3.10
2022-11-19T06:06:55.099Z,2.40
2022-11-19T06:09:08.758Z,2.80
2022-11-19T06:11:35.216Z,2.10
2022-11-19T06:13:48.561Z,1.70
2022-11-19T06:16:02.066Z,1.80
2022-11-19T06:18:15.410Z,3.40
2022-11-19T06:20:28.741Z,2.50
2022-11-19T06:22:42.280Z,3.20
2022-11-19T06:24:55.534Z,2.60
2022-11-19T06:27:08.974Z,3.20
2022-11-19T06:29:23.163Z,4.50
2022-11-19T06:31:36.966Z,3.50
2022-11-19T06:33:50.444Z,3.80
2022-11-19T06:36:04.438Z,2.50
2022-11-19T06:38:17.745Z,2.10
2022-11-19T06:40:31.542Z,2.60
2022-11-19T06:42:49.786Z,3.10
2022-11-19T06:45:04.560Z,2.40
2022-11-19T06:47:18.073Z,3.60
2022-11-19T06:49:31.602Z,2.70
2022-11-19T06:51:45.163Z,1.90
2022-11-19T06:53:58.591Z,3.30
2022-11-19T06:56:13.088Z,3.20
2022-11-19T06:58:26.586Z,1.90
2022-11-19T07:00:40.072Z,2.90
2022-11-19T07:02:53.652Z,2.60
2022-11-19T07:05:07.724Z,2.40
2022-11-19T07:07:21.205Z,2.80
2022-11-19T07:09:34.781Z,2.30
2022-11-19T07:11:48.260Z,3.40
2022-11-19T07:14:01.995Z,2.30
2022-11-19T07:16:15.570Z,3.10
2022-11-19T07:18:29.098Z,1.50
2022-11-19T07:20:42.691Z,2.30
2022-11-19T07:22:59.095Z,3.20
2022-11-19T07:25:15.791Z,2.60
2022-11-19T07:27:29.482Z,3.40
2022-11-19T07:29:42.757Z,5.00
2022-11-19T07:31:56.217Z,3.40
2022-11-19T07:34:12.633Z,3.20
2022-11-19T07:36:26.049Z,3.40
2022-11-19T07:38:39.368Z,2.20
2022-11-19T07:40:58.538Z,3.10
2022-11-19T07:43:12.109Z,3.10
2022-11-19T07:45:27.132Z,3.30
2022-11-19T07:47:41.898Z,2.90
2022-11-19T07:49:55.481Z,2.40
2022-11-19T07:52:09.009Z,3.50
2022-11-19T07:54:22.624Z,6.70
2022-11-19T07:56:36.167Z,2.70
2022-11-19T07:58:49.701Z,3.40
2022-11-19T08:01:10.393Z,2.30
2022-11-19T08:03:23.719Z,2.60
2022-11-19T08:05:37.046Z,2.80
2022-11-19T08:07:50.758Z,2.40
2022-11-19T08:10:04.210Z,2.60
2022-11-19T08:12:17.499Z,2.90
2022-11-19T08:14:30.987Z,2.90
2022-11-19T08:17:00.670Z,3.00
2022-11-19T08:19:16.444Z,2.70
2022-11-19T08:21:29.859Z,4.30
2022-11-19T08:23:44.153Z,3.30
2022-11-19T08:25:57.576Z,2.20
2022-11-19T08:28:11.160Z,3.30
2022-11-19T08:30:24.778Z,2.40
2022-11-19T08:32:39.509Z,1.50
2022-11-19T08:34:52.820Z,3.40
2022-11-19T08:37:06.427Z,5.20
2022-11-19T08:39:20.084Z,2.80
2022-11-19T08:41:50.235Z,2.80
2022-11-19T08:44:05.884Z,4.50
2022-11-19T08:46:19.346Z,2.50
2022-11-19T08:48:32.591Z,3.10
2022-11-19T08:50:48.210Z,2.00
2022-11-19T08:53:03.241Z,2.70
2022-11-19T08:55:16.975Z,2.80
2022-11-19T08:57:30.452Z,4.20
2022-11-19T08:59:43.775Z,5.70
2022-11-19T09:01:57.085Z,3.40
2022-11-19T09:04:10.740Z,3.00
2022-11-19T09:06:24.263Z,2.40
2022-11-19T09:08:37.992Z,2.90
2022-11-19T09:10:51.248Z,4.70
2022-11-19T09:13:04.548Z,4.10
2022-11-19T09:15:18.052Z,6.20
2022-11-19T09:17:31.206Z,3.20
2022-11-19T09:19:44.598Z,2.70
2022-11-19T09:21:58.202Z,4.00
2022-11-19T09:24:11.912Z,4.30
2022-11-19T09:26:25.483Z,2.90
2022-11-19T09:28:39.183Z,2.40
2022-11-19T09:31:01.186Z,2.40
2022-11-19T09:33:14.593Z,3.30
2022-11-19T09:35:27.962Z,2.80
2022-11-19T09:37:41.550Z,2.40
2022-11-19T09:39:54.864Z,3.00
2022-11-19T09:42:23.759Z,3.00
2022-11-19T09:44:50.075Z,2.50
2022-11-19T09:47:10.579Z,2.80
2022-11-19T09:49:31.766Z,3.10
2022-11-19T09:51:49.918Z,4.20
2022-11-19T09:54:07.968Z,4.50
2022-11-19T09:56:27.551Z,4.60
2022-11-19T09:58:45.158Z,2.70
2022-11-19T10:01:00.693Z,2.50
2022-11-19T10:03:19.244Z,3.40
2022-11-19T10:05:41.322Z,1.90
2022-11-19T10:08:06.852Z,2.50
2022-11-19T10:10:35.431Z,3.30
2022-11-19T10:13:15.748Z,2.60
2022-11-19T10:15:37.547Z,6.10
2022-11-19T10:18:00.563Z,2.60
2022-11-19T10:20:35.610Z,3.60
2022-11-19T10:22:57.400Z,3.20
2022-11-19T10:25:21.100Z,3.50
2022-11-19T10:27:40.370Z,3.20
2022-11-19T10:29:59.984Z,2.90
2022-11-19T10:32:29.950Z,2.20
2022-11-19T10:34:44.386Z,2.60
2022-11-19T10:37:02.591Z,3.80
2022-11-19T10:39:23.494Z,3.10
2022-11-19T10:41:41.368Z,3.90
2022-11-19T10:44:00.535Z,3.00
2022-11-19T10:46:18.566Z,3.60
2022-11-19T10:48:41.105Z,2.70
2022-11-19T10:50:57.056Z,2.90
2022-11-19T10:53:17.895Z,3.20
2022-11-19T10:55:37.467Z,4.50
2022-11-19T10:57:53.362Z,4.10
2022-11-19T11:00:07.500Z,2.30
2022-11-19T11:02:37.034Z,2.90
2022-11-19T11:05:08.514Z,21.00
2022-11-19T11:07:22.629Z,2.60
2022-11-19T11:09:41.103Z,2.30
2022-11-19T11:12:11.158Z,3.30
2022-11-19T11:14:43.085Z,3.90
2022-11-19T11:16:56.375Z,3.40
2022-11-19T11:19:16.078Z,3.40
2022-11-19T11:21:46.141Z,4.00
2022-11-19T11:24:00.245Z,4.40
2022-11-19T11:26:15.869Z,2.40
2022-11-19T11:28:29.713Z,2.70
2022-11-19T11:30:54.621Z,2.50
2022-11-19T11:33:30.104Z,2.60
2022-11-19T11:35:47.858Z,2.10
2022-11-19T11:38:02.411Z,3.90
2022-11-19T11:40:23.507Z,4.60
2022-11-19T11:42:36.884Z,8.10
2022-11-19T11:44:58.304Z,2.70
2022-11-19T11:47:19.910Z,3.60
2022-11-19T11:49:36.877Z,2.10
2022-11-19T11:51:50.327Z,4.50
2022-11-19T11:54:22.607Z,2.90
2022-11-19T11:56:36.163Z,3.50
2022-11-19T11:58:49.508Z,3.00
2022-11-19T12:01:19.457Z,5.00
2022-11-19T12:03:54.101Z,3.90
2022-11-19T12:06:16.422Z,3.70
2022-11-19T12:08:46.742Z,3.40
2022-11-19T12:11:05.711Z,4.10
2022-11-19T12:13:46.677Z,2.80
2022-11-19T12:16:10.202Z,2.50
2022-11-19T12:18:32.778Z,3.80
2022-11-19T12:20:54.616Z,4.20
2022-11-19T12:23:21.364Z,2.40
2022-11-19T12:25:40.362Z,3.50
2022-11-19T12:28:11.057Z,3.40
2022-11-19T12:30:27.186Z,3.00
2022-11-19T12:33:04.150Z,3.10
2022-11-19T12:35:37.704Z,4.70
2022-11-19T12:38:04.661Z,3.60
2022-11-19T12:40:38.834Z,4.70
2022-11-19T12:43:05.276Z,3.10
2022-11-19T12:45:28.134Z,6.00
2022-11-19T12:47:55.151Z,2.70
2022-11-19T12:50:21.086Z,2.50
2022-11-19T12:52:51.706Z,3.80
2022-11-19T12:55:13.741Z,3.10
2022-11-19T12:57:44.266Z,4.30
2022-11-19T13:00:09.568Z,3.70
2022-11-19T13:02:29.150Z,4.00
2022-11-19T13:04:49.284Z,3.10
2022-11-19T13:07:07.603Z,2.90
2022-11-19T13:09:27.008Z,3.40
2022-11-19T13:11:45.281Z,3.30
2022-11-19T13:14:03.781Z,2.10
2022-11-19T13:16:19.918Z,3.20
2022-11-19T13:18:38.264Z,2.70
2022-11-19T13:20:56.045Z,2.70
2022-11-19T13:23:16.554Z,3.20
2022-11-19T13:25:34.163Z,3.00
2022-11-19T13:27:50.790Z,4.00
2022-11-19T13:30:07.376Z,3.20
2022-11-19T13:32:29.680Z,4.20
2022-11-19T13:34:50.699Z,2.90
2022-11-19T13:37:09.752Z,2.40
2022-11-19T13:39:29.903Z,4.00
2022-11-19T13:42:00.967Z,4.50
2022-11-19T13:44:33.825Z,3.00
2022-11-19T13:49:04.926Z,2.80
2022-11-19T13:51:28.481Z,1.90
2022-11-19T13:53:46.330Z,4.50
2022-11-19T13:56:02.210Z,3.10
2022-11-19T13:58:25.298Z,2.20
2022-11-19T14:00:39.892Z,2.20
2022-11-19T14:03:15.812Z,3.20
2022-11-19T14:05:54.292Z,4.00
2022-11-19T14:08:17.142Z,3.20
2022-11-19T14:10:36.759Z,3.00
2022-11-19T14:13:18.313Z,4.60
2022-11-19T14:16:10.079Z,2.40
2022-11-19T14:18:54.354Z,2.50
2022-11-19T14:21:53.364Z,4.20
2022-11-19T14:24:47.465Z,3.90
2022-11-19T14:27:27.265Z,2.20
2022-11-19T14:29:58.433Z,3.60
2022-11-19T14:32:41.602Z,2.60
2022-11-19T14:35:35.423Z,2.30
2022-11-19T14:37:50.921Z,2.60
2022-11-19T14:40:11.255Z,4.10
2022-11-19T14:42:25.801Z,2.40
2022-11-19T14:44:42.622Z,3.30
2022-11-19T14:46:56.245Z,2.60
2022-11-19T14:49:22.352Z,5.40
2022-11-19T14:51:37.825Z,3.10
2022-11-19T14:53:58.821Z,2.40
2022-11-19T14:56:19.112Z,3.30
2022-11-19T14:58:32.671Z,3.50
2022-11-19T15:00:47.184Z,2.70
2022-11-19T15:03:00.677Z,2.90
2022-11-19T15:05:25.452Z,2.50
2022-11-19T15:07:45.236Z,3.40
2022-11-19T15:10:32.567Z,4.20
2022-11-19T15:13:05.765Z,3.40
2022-11-19T15:15:45.067Z,2.80
2022-11-19T15:18:04.665Z,2.80
2022-11-19T15:20:35.146Z,3.30
2022-11-19T15:23:03.430Z,4.60
2022-11-19T15:25:44.181Z,2.50
2022-11-19T15:28:27.762Z,3.20
2022-11-19T15:31:09.353Z,4.60
2022-11-19T15:33:57.598Z,2.80
2022-11-19T15:36:40.984Z,4.40
2022-11-19T15:39:01.177Z,2.60
2022-11-19T15:41:19.539Z,3.80
2022-11-19T15:43:36.778Z,2.40
2022-11-19T15:45:53.623Z,2.90
2022-11-19T15:48:16.292Z,4.40
2022-11-19T15:50:31.116Z,2.40
2022-11-19T15:52:44.552Z,3.40
2022-11-19T15:55:13.372Z,3.40
2022-11-19T15:57:29.153Z,2.50
2022-11-19T15:59:44.515Z,2.80
2022-11-19T16:02:05.969Z,3.20
2022-11-19T16:04:22.679Z,3.10
2022-11-19T16:06:36.867Z,2.90
2022-11-19T16:08:51.110Z,3.50
2022-11-19T16:11:22.452Z,3.40
2022-11-19T16:13:51.926Z,3.10
2022-11-19T16:16:21.520Z,2.90
2022-11-19T16:18:34.984Z,2.60
2022-11-19T16:20:51.335Z,1.90
2022-11-19T16:23:07.936Z,4.30
2022-11-19T16:25:28.033Z,4.30
2022-11-19T16:27:46.012Z,2.80
2022-11-19T16:29:59.613Z,4.60
2022-11-19T16:32:18.088Z,2.60
2022-11-19T16:34:33.152Z,3.90
2022-11-19T16:36:49.855Z,6.80
2022-11-19T16:39:05.127Z,4.40
2022-11-19T16:41:36.241Z,4.30
2022-11-19T16:43:51.705Z,2.10
2022-11-19T16:46:05.949Z,3.60
2022-11-19T16:48:51.799Z,3.30
2022-11-19T16:51:34.349Z,3.30
2022-11-19T16:53:57.115Z,2.80
2022-11-19T16:58:33.253Z,3.60
2022-11-19T17:00:49.558Z,3.90
2022-11-19T17:03:07.319Z,3.70
2022-11-19T17:05:24.116Z,4.00
2022-11-19T17:07:38.034Z,5.10
2022-11-19T17:09:51.876Z,2.60
2022-11-19T17:12:23.599Z,3.10
2022-11-19T17:14:53.802Z,4.70
2022-11-19T17:17:07.558Z,3.60
2022-11-19T17:19:35.605Z,4.80
2022-11-19T17:21:55.283Z,3.40
2022-11-19T17:24:09.054Z,3.00
2022-11-19T17:26:26.876Z,5.40
2022-11-19T17:28:43.002Z,2.60
2022-11-19T17:30:56.325Z,3.40
2022-11-19T17:33:17.609Z,4.20
2022-11-19T17:35:43.059Z,3.40
2022-11-19T17:37:56.528Z,3.60
2022-11-19T17:40:10.647Z,4.20
2022-11-19T17:42:40.768Z,4.10
2022-11-19T17:44:54.062Z,3.60
2022-11-19T17:47:20.679Z,5.30
2022-11-19T17:49:35.057Z,5.10
2022-11-19T17:51:48.317Z,3.40
2022-11-19T17:54:02.136Z,2.90
2022-11-19T17:56:21.589Z,2.90
2022-11-19T17:58:34.871Z,2.70
2022-11-19T18:00:48.315Z,2.80
2022-11-19T18:03:03.183Z,3.60
2022-11-19T18:05:24.648Z,3.90
2022-11-19T18:07:38.416Z,2.90
2022-11-19T18:09:51.926Z,3.60
2022-11-19T18:12:05.950Z,2.70
2022-11-19T18:14:19.376Z,3.40
2022-11-19T18:16:36.496Z,3.20
2022-11-19T18:18:49.767Z,4.70
2022-11-19T18:21:03.042Z,4.80
2022-11-19T18:23:18.103Z,3.40
2022-11-19T18:25:31.490Z,3.50
2022-11-19T18:27:44.799Z,3.10
2022-11-19T18:29:58.186Z,4.80
2022-11-19T18:32:16.421Z,3.20
2022-11-19T18:34:30.309Z,5.10
2022-11-19T18:36:43.687Z,3.60
2022-11-19T18:38:57.553Z,2.90
2022-11-19T18:41:12.794Z,2.80
2022-11-19T18:43:43.040Z,3.70
2022-11-19T18:45:56.309Z,3.50
2022-11-19T18:48:10.339Z,4.50
2022-11-19T18:50:29.386Z,5.10
2022-11-19T18:52:43.478Z,4.60
2022-11-19T18:54:57.008Z,3.50
2022-11-19T18:57:10.436Z,5.20
2022-11-19T18:59:24.250Z,4.00
2022-11-19T19:01:38.163Z,4.40
2022-11-19T19:03:53.952Z,5.20
2022-11-19T19:06:10.032Z,4.40
2022-11-19T19:08:23.551Z,3.90
2022-11-19T19:10:37.191Z,5.60
2022-11-19T19:12:50.415Z,3.90
2022-11-19T19:15:04.104Z,3.30
2022-11-19T19:17:18.054Z,3.40
2022-11-19T19:19:31.541Z,4.50
2022-11-19T19:21:44.811Z,3.60
2022-11-19T19:23:58.126Z,3.80
2022-11-19T19:26:11.748Z,4.20
2022-11-19T19:28:25.023Z,8.30
2022-11-19T19:30:38.257Z,9.50
2022-11-19T19:32:51.472Z,12.70
2022-11-19T19:35:04.645Z,8.20
2022-11-19T19:37:17.991Z,5.70
2022-11-19T19:39:31.349Z,9.80
2022-11-19T19:41:44.499Z,10.60
2022-11-19T19:43:59.280Z,9.00
2022-11-19T19:46:16.974Z,14.10
2022-11-19T19:48:30.299Z,10.00
2022-11-19T19:50:43.919Z,14.60
2022-11-19T19:52:57.353Z,18.70
2022-11-19T19:55:11.886Z,12.30
2022-11-19T19:57:25.310Z,14.20
2022-11-19T19:59:38.947Z,13.00
2022-11-19T20:01:52.865Z,13.50
2022-11-19T20:04:09.085Z,16.40
2022-11-19T20:06:24.295Z,14.40
2022-11-19T20:08:37.914Z,14.90
2022-11-19T20:10:51.318Z,10.10
2022-11-19T20:13:21.457Z,17.20
2022-11-19T20:15:35.985Z,19.50
2022-11-19T20:17:49.335Z,18.90
2022-11-19T20:20:02.949Z,20.00
2022-11-19T20:22:16.392Z,18.60
2022-11-19T20:24:29.693Z,19.30
2022-11-19T20:26:43.420Z,11.10
2022-11-19T20:29:01.076Z,17.00
2022-11-19T20:31:16.078Z,12.00
2022-11-19T20:33:29.419Z,18.60
2022-11-19T20:35:43.671Z,19.80
2022-11-19T20:38:02.205Z,18.90
2022-11-19T20:40:18.775Z,15.90
2022-11-19T20:42:48.685Z,12.60
2022-11-19T20:45:01.947Z,18.10
2022-11-19T20:47:15.224Z,13.60
2022-11-19T20:49:29.331Z,16.50
2022-11-19T20:51:43.697Z,15.40
2022-11-19T20:53:57.171Z,18.60
2022-11-19T20:56:11.350Z,18.70
2022-11-19T20:58:24.662Z,12.00
2022-11-19T21:00:37.982Z,9.50
2022-11-19T21:02:51.259Z,18.20
2022-11-19T21:05:04.586Z,15.30
2022-11-19T21:07:17.986Z,10.40
2022-11-19T21:09:31.697Z,12.50
2022-11-19T21:11:45.025Z,14.90
2022-11-19T21:13:58.311Z,16.30
2022-11-19T21:16:16.095Z,15.70
2022-11-19T21:18:33.796Z,10.40
2022-11-19T21:20:49.846Z,15.70
2022-11-19T21:23:03.327Z,10.20
2022-11-19T21:25:16.894Z,14.70
2022-11-19T21:27:30.236Z,12.10
2022-11-19T21:29:43.549Z,10.50
2022-11-19T21:31:56.880Z,11.60
2022-11-19T21:34:11.002Z,9.60
2022-11-19T21:36:24.285Z,15.50
2022-11-19T21:38:37.514Z,12.00
2022-11-19T21:40:50.908Z,11.30
2022-11-19T21:43:04.153Z,10.20
2022-11-19T21:45:17.744Z,12.70
2022-11-19T21:47:31.131Z,16.50
2022-11-19T21:49:44.697Z,10.70
2022-11-19T21:51:57.981Z,7.10
2022-11-19T21:54:11.555Z,9.40
2022-11-19T21:56:24.841Z,6.40
2022-11-19T21:58:37.447Z,17.00
2022-11-19T22:00:50.857Z,9.70
2022-11-19T22:03:04.209Z,12.50
2022-11-19T22:05:17.726Z,14.00
2022-11-19T22:07:31.047Z,10.90
2022-11-19T22:09:44.452Z,15.40
2022-11-19T22:11:57.733Z,13.00
2022-11-19T22:14:13.036Z,12.20
2022-11-19T22:16:26.419Z,12.70
2022-11-19T22:18:39.766Z,11.50
2022-11-19T22:20:53.141Z,11.50
2022-11-19T22:23:06.372Z,10.70
2022-11-19T22:25:19.901Z,9.70
2022-11-19T22:27:34.300Z,8.20
2022-11-19T22:29:47.582Z,9.80
2022-11-19T22:32:00.935Z,10.90
2022-11-19T22:34:14.631Z,14.40
2022-11-19T22:36:28.361Z,14.50
2022-11-19T22:38:42.473Z,12.80
2022-11-19T22:40:56.106Z,12.30
2022-11-19T22:43:09.475Z,13.60
2022-11-19T22:45:22.896Z,11.10
2022-11-19T22:47:37.144Z,15.40
2022-11-19T22:49:50.553Z,9.70
2022-11-19T22:52:03.959Z,12.70
2022-11-19T22:54:18.342Z,11.50
2022-11-19T22:56:33.011Z,10.90
2022-11-19T22:58:46.726Z,14.50
2022-11-19T23:01:00.354Z,15.50
2022-11-19T23:03:14.144Z,11.20
2022-11-19T23:05:27.393Z,15.20
2022-11-19T23:07:40.648Z,17.30
2022-11-19T23:09:53.961Z,10.90
2022-11-19T23:12:23.537Z,16.70
2022-11-19T23:14:36.991Z,17.70
2022-11-19T23:16:50.619Z,20.60
2022-11-19T23:19:03.878Z,22.30
2022-11-19T23:21:18.968Z,20.10
2022-11-19T23:23:32.782Z,23.20
2022-11-19T23:25:46.105Z,19.60
2022-11-19T23:27:59.340Z,12.60
2022-11-19T23:30:14.313Z,15.80
2022-11-19T23:32:35.029Z,14.00
2022-11-19T23:34:50.456Z,17.30
2022-11-19T23:37:03.933Z,15.00
2022-11-19T23:39:21.077Z,13.90
2022-11-19T23:41:35.630Z,18.10
2022-11-19T23:43:50.192Z,15.90
2022-11-19T23:46:09.679Z,17.70
2022-11-19T23:48:23.085Z,14.40
2022-11-19T23:50:36.423Z,19.30
2022-11-19T23:52:49.716Z,15.10
2022-11-19T23:55:03.051Z,13.20
2022-11-19T23:57:16.702Z,13.90
2022-11-19T23:59:30.614Z,14.90
